sensor_id;sensor_type;location;lat;lon;timestamp;P1;durP1;ratioP1;P2;durP2;ratioP2
21297;SDS011;10808;48.010;11.326;2023-03-01T00:00:22;27.58;;;18.73;;
21297;SDS011;10808;48.010;11.326;2023-03-01T00:02:48;28.25;;;18.65;;
21297;SDS011;10808;48.010;11.326;2023-03-01T00:05:14;27.70;;;18.07;;
21297;SDS011;10808;48.010;11.326;2023-03-01T00:07:40;28.35;;;18.52;;
21297;SDS011;10808;48.010;11.326;2023-03-01T00:10:06;27.30;;;18.38;;
21297;SDS011;10808;48.010;11.326;2023-03-01T00:12:32;27.58;;;18.90;;
21297;SDS011;10808;48.010;11.326;2023-03-01T00:14:58;28.50;;;19.75;;
21297;SDS011;10808;48.010;11.326;2023-03-01T00:17:24;26.77;;;18.75;;
21297;SDS011;10808;48.010;11.326;2023-03-01T00:19:50;29.20;;;19.23;;
21297;SDS011;10808;48.010;11.326;2023-03-01T00:22:16;29.15;;;19.33;;
21297;SDS011;10808;48.010;11.326;2023-03-01T00:24:42;29.67;;;20.10;;
21297;SDS011;10808;48.010;11.326;2023-03-01T00:27:08;32.88;;;19.67;;
21297;SDS011;10808;48.010;11.326;2023-03-01T00:29:34;32.33;;;21.33;;
21297;SDS011;10808;48.010;11.326;2023-03-01T00:32:00;32.37;;;20.37;;
21297;SDS011;10808;48.010;11.326;2023-03-01T00:34:26;29.73;;;19.33;;
21297;SDS011;10808;48.010;11.326;2023-03-01T00:36:52;31.63;;;20.15;;
21297;SDS011;10808;48.010;11.326;2023-03-01T00:39:18;28.00;;;19.83;;
21297;SDS011;10808;48.010;11.326;2023-03-01T00:41:44;30.95;;;19.63;;
21297;SDS011;10808;48.010;11.326;2023-03-01T00:44:11;30.20;;;19.38;;
21297;SDS011;10808;48.010;11.326;2023-03-01T00:46:37;31.92;;;21.00;;
21297;SDS011;10808;48.010;11.326;2023-03-01T00:49:03;31.05;;;20.40;;
21297;SDS011;10808;48.010;11.326;2023-03-01T00:51:30;31.23;;;20.02;;
21297;SDS011;10808;48.010;11.326;2023-03-01T00:53:57;31.42;;;20.25;;
21297;SDS011;10808;48.010;11.326;2023-03-01T00:56:25;31.27;;;20.30;;
21297;SDS011;10808;48.010;11.326;2023-03-01T00:58:51;37.00;;;21.27;;
21297;SDS011;10808;48.010;11.326;2023-03-01T01:01:22;47.65;;;25.15;;
21297;SDS011;10808;48.010;11.326;2023-03-01T01:04:26;55.30;;;27.08;;
21297;SDS011;10808;48.010;11.326;2023-03-01T01:06:45;50.58;;;26.00;;
21297;SDS011;10808;48.010;11.326;2023-03-01T01:09:13;51.83;;;26.23;;
21297;SDS011;10808;48.010;11.326;2023-03-01T01:11:44;41.65;;;23.80;;
21297;SDS011;10808;48.010;11.326;2023-03-01T01:14:14;42.50;;;23.45;;
21297;SDS011;10808;48.010;11.326;2023-03-01T01:16:41;40.97;;;22.33;;
21297;SDS011;10808;48.010;11.326;2023-03-01T01:19:07;43.50;;;24.83;;
21297;SDS011;10808;48.010;11.326;2023-03-01T01:21:34;41.10;;;23.08;;
21297;SDS011;10808;48.010;11.326;2023-03-01T01:24:02;32.60;;;20.75;;
21297;SDS011;10808;48.010;11.326;2023-03-01T01:26:30;35.83;;;21.35;;
21297;SDS011;10808;48.010;11.326;2023-03-01T01:28:57;61.83;;;29.42;;
21297;SDS011;10808;48.010;11.326;2023-03-01T01:31:25;48.53;;;25.63;;
21297;SDS011;10808;48.010;11.326;2023-03-01T01:33:52;42.08;;;22.70;;
21297;SDS011;10808;48.010;11.326;2023-03-01T01:36:19;29.48;;;20.38;;
21297;SDS011;10808;48.010;11.326;2023-03-01T01:38:46;29.25;;;20.08;;
21297;SDS011;10808;48.010;11.326;2023-03-01T01:41:12;29.93;;;19.43;;
21297;SDS011;10808;48.010;11.326;2023-03-01T01:43:41;40.40;;;22.48;;
21297;SDS011;10808;48.010;11.326;2023-03-01T01:48:48;30.98;;;19.98;;
21297;SDS011;10808;48.010;11.326;2023-03-01T01:51:23;38.53;;;22.88;;
21297;SDS011;10808;48.010;11.326;2023-03-01T01:53:55;31.25;;;20.52;;
21297;SDS011;10808;48.010;11.326;2023-03-01T01:56:25;35.53;;;22.08;;
21297;SDS011;10808;48.010;11.326;2023-03-01T01:58:54;32.65;;;21.23;;
21297;SDS011;10808;48.010;11.326;2023-03-01T02:01:21;30.27;;;20.13;;
21297;SDS011;10808;48.010;11.326;2023-03-01T02:03:47;38.67;;;23.90;;
21297;SDS011;10808;48.010;11.326;2023-03-01T02:08:59;30.27;;;19.75;;
21297;SDS011;10808;48.010;11.326;2023-03-01T02:11:31;30.55;;;21.05;;
21297;SDS011;10808;48.010;11.326;2023-03-01T02:13:59;29.23;;;20.15;;
21297;SDS011;10808;48.010;11.326;2023-03-01T02:16:25;30.42;;;20.48;;
21297;SDS011;10808;48.010;11.326;2023-03-01T02:18:52;29.35;;;19.55;;
21297;SDS011;10808;48.010;11.326;2023-03-01T02:23:54;30.30;;;19.92;;
21297;SDS011;10808;48.010;11.326;2023-03-01T02:26:33;31.95;;;20.33;;
21297;SDS011;10808;48.010;11.326;2023-03-01T02:29:06;29.40;;;19.88;;
21297;SDS011;10808;48.010;11.326;2023-03-01T02:31:33;31.95;;;20.05;;
21297;SDS011;10808;48.010;11.326;2023-03-01T02:34:15;28.35;;;19.08;;
21297;SDS011;10808;48.010;11.326;2023-03-01T02:36:45;28.83;;;19.15;;
21297;SDS011;10808;48.010;11.326;2023-03-01T02:39:15;29.48;;;19.27;;
21297;SDS011;10808;48.010;11.326;2023-03-01T02:41:47;29.63;;;19.30;;
21297;SDS011;10808;48.010;11.326;2023-03-01T02:44:16;30.73;;;20.35;;
21297;SDS011;10808;48.010;11.326;2023-03-01T02:46:46;29.52;;;19.92;;
21297;SDS011;10808;48.010;11.326;2023-03-01T02:51:54;29.35;;;19.25;;
21297;SDS011;10808;48.010;11.326;2023-03-01T02:54:48;28.48;;;19.42;;
21297;SDS011;10808;48.010;11.326;2023-03-01T02:57:36;29.53;;;20.17;;
21297;SDS011;10808;48.010;11.326;2023-03-01T03:02:45;28.52;;;19.48;;
21297;SDS011;10808;48.010;11.326;2023-03-01T03:05:17;29.90;;;20.20;;
21297;SDS011;10808;48.010;11.326;2023-03-01T03:07:45;31.60;;;19.02;;
21297;SDS011;10808;48.010;11.326;2023-03-01T03:10:18;28.95;;;19.70;;
21297;SDS011;10808;48.010;11.326;2023-03-01T03:12:49;28.63;;;19.77;;
21297;SDS011;10808;48.010;11.326;2023-03-01T03:15:17;31.05;;;19.75;;
21297;SDS011;10808;48.010;11.326;2023-03-01T03:17:43;29.92;;;19.88;;
21297;SDS011;10808;48.010;11.326;2023-03-01T03:20:10;26.88;;;18.63;;
21297;SDS011;10808;48.010;11.326;2023-03-01T03:22:44;29.77;;;20.08;;
21297;SDS011;10808;48.010;11.326;2023-03-01T03:25:14;28.27;;;19.57;;
21297;SDS011;10808;48.010;11.326;2023-03-01T03:27:43;32.42;;;20.40;;
21297;SDS011;10808;48.010;11.326;2023-03-01T03:30:11;30.77;;;19.90;;
21297;SDS011;10808;48.010;11.326;2023-03-01T03:32:43;30.03;;;19.43;;
21297;SDS011;10808;48.010;11.326;2023-03-01T03:35:25;30.08;;;19.70;;
21297;SDS011;10808;48.010;11.326;2023-03-01T03:37:55;31.27;;;20.70;;
21297;SDS011;10808;48.010;11.326;2023-03-01T03:40:29;31.20;;;20.05;;
21297;SDS011;10808;48.010;11.326;2023-03-01T03:43:01;27.80;;;19.85;;
21297;SDS011;10808;48.010;11.326;2023-03-01T03:45:27;30.80;;;19.90;;
21297;SDS011;10808;48.010;11.326;2023-03-01T03:47:53;30.45;;;20.30;;
21297;SDS011;10808;48.010;11.326;2023-03-01T03:50:19;29.05;;;20.23;;
21297;SDS011;10808;48.010;11.326;2023-03-01T03:52:45;29.20;;;20.48;;
21297;SDS011;10808;48.010;11.326;2023-03-01T03:55:12;28.00;;;19.98;;
21297;SDS011;10808;48.010;11.326;2023-03-01T03:57:38;29.45;;;20.40;;
21297;SDS011;10808;48.010;11.326;2023-03-01T04:00:06;28.92;;;19.75;;
21297;SDS011;10808;48.010;11.326;2023-03-01T04:02:39;30.33;;;20.10;;
21297;SDS011;10808;48.010;11.326;2023-03-01T04:05:06;28.87;;;19.70;;
21297;SDS011;10808;48.010;11.326;2023-03-01T04:07:34;27.77;;;19.58;;
21297;SDS011;10808;48.010;11.326;2023-03-01T04:10:02;30.38;;;20.42;;
21297;SDS011;10808;48.010;11.326;2023-03-01T04:12:28;31.63;;;21.00;;
21297;SDS011;10808;48.010;11.326;2023-03-01T04:14:54;28.85;;;19.02;;
21297;SDS011;10808;48.010;11.326;2023-03-01T04:17:22;30.17;;;19.87;;
21297;SDS011;10808;48.010;11.326;2023-03-01T04:19:48;28.55;;;20.33;;
21297;SDS011;10808;48.010;11.326;2023-03-01T04:22:14;28.88;;;19.70;;
21297;SDS011;10808;48.010;11.326;2023-03-01T04:24:42;29.52;;;20.63;;
21297;SDS011;10808;48.010;11.326;2023-03-01T04:27:09;28.73;;;19.83;;
21297;SDS011;10808;48.010;11.326;2023-03-01T04:29:35;29.95;;;20.42;;
21297;SDS011;10808;48.010;11.326;2023-03-01T04:32:01;30.42;;;20.05;;
21297;SDS011;10808;48.010;11.326;2023-03-01T04:34:34;29.85;;;20.20;;
21297;SDS011;10808;48.010;11.326;2023-03-01T04:37:00;30.02;;;20.20;;
21297;SDS011;10808;48.010;11.326;2023-03-01T04:39:26;42.33;;;20.33;;
21297;SDS011;10808;48.010;11.326;2023-03-01T04:41:52;30.52;;;20.70;;
21297;SDS011;10808;48.010;11.326;2023-03-01T04:44:18;27.67;;;19.75;;
21297;SDS011;10808;48.010;11.326;2023-03-01T04:46:44;28.48;;;19.95;;
21297;SDS011;10808;48.010;11.326;2023-03-01T04:49:10;31.92;;;20.75;;
21297;SDS011;10808;48.010;11.326;2023-03-01T04:51:36;28.58;;;20.23;;
21297;SDS011;10808;48.010;11.326;2023-03-01T04:54:04;31.60;;;20.35;;
21297;SDS011;10808;48.010;11.326;2023-03-01T04:56:34;27.77;;;19.80;;
21297;SDS011;10808;48.010;11.326;2023-03-01T04:59:00;33.45;;;20.85;;
21297;SDS011;10808;48.010;11.326;2023-03-01T05:01:28;31.02;;;20.75;;
21297;SDS011;10808;48.010;11.326;2023-03-01T05:03:54;28.77;;;20.42;;
21297;SDS011;10808;48.010;11.326;2023-03-01T05:06:20;35.78;;;21.48;;
21297;SDS011;10808;48.010;11.326;2023-03-01T05:08:46;32.22;;;20.83;;
21297;SDS011;10808;48.010;11.326;2023-03-01T05:11:12;31.48;;;20.95;;
21297;SDS011;10808;48.010;11.326;2023-03-01T05:13:38;30.88;;;19.65;;
21297;SDS011;10808;48.010;11.326;2023-03-01T05:16:05;31.33;;;21.08;;
21297;SDS011;10808;48.010;11.326;2023-03-01T05:18:36;32.50;;;20.58;;
21297;SDS011;10808;48.010;11.326;2023-03-01T05:21:06;31.38;;;20.75;;
21297;SDS011;10808;48.010;11.326;2023-03-01T05:23:37;29.35;;;20.17;;
21297;SDS011;10808;48.010;11.326;2023-03-01T05:26:05;30.52;;;20.92;;
21297;SDS011;10808;48.010;11.326;2023-03-01T05:28:31;32.50;;;21.05;;
21297;SDS011;10808;48.010;11.326;2023-03-01T05:30:58;35.25;;;21.40;;
21297;SDS011;10808;48.010;11.326;2023-03-01T05:33:24;32.50;;;20.50;;
21297;SDS011;10808;48.010;11.326;2023-03-01T05:35:51;32.38;;;20.65;;
21297;SDS011;10808;48.010;11.326;2023-03-01T05:38:19;29.20;;;20.08;;
21297;SDS011;10808;48.010;11.326;2023-03-01T05:40:47;28.98;;;20.48;;
21297;SDS011;10808;48.010;11.326;2023-03-01T05:43:14;34.57;;;21.63;;
21297;SDS011;10808;48.010;11.326;2023-03-01T05:45:42;30.85;;;20.65;;
21297;SDS011;10808;48.010;11.326;2023-03-01T05:48:08;32.15;;;21.00;;
21297;SDS011;10808;48.010;11.326;2023-03-01T05:50:43;30.17;;;20.67;;
21297;SDS011;10808;48.010;11.326;2023-03-01T05:53:11;30.97;;;20.87;;
21297;SDS011;10808;48.010;11.326;2023-03-01T05:55:38;32.23;;;21.30;;
21297;SDS011;10808;48.010;11.326;2023-03-01T05:58:06;30.38;;;20.13;;
21297;SDS011;10808;48.010;11.326;2023-03-01T06:00:34;29.42;;;20.42;;
21297;SDS011;10808;48.010;11.326;2023-03-01T06:03:01;31.77;;;21.23;;
21297;SDS011;10808;48.010;11.326;2023-03-01T06:05:27;28.85;;;19.88;;
21297;SDS011;10808;48.010;11.326;2023-03-01T06:07:53;30.58;;;20.85;;
21297;SDS011;10808;48.010;11.326;2023-03-01T06:10:20;31.42;;;21.52;;
21297;SDS011;10808;48.010;11.326;2023-03-01T06:12:48;31.92;;;21.23;;
21297;SDS011;10808;48.010;11.326;2023-03-01T06:15:14;31.17;;;20.97;;
21297;SDS011;10808;48.010;11.326;2023-03-01T06:17:42;31.20;;;20.85;;
21297;SDS011;10808;48.010;11.326;2023-03-01T06:22:40;37.15;;;20.83;;
21297;SDS011;10808;48.010;11.326;2023-03-01T06:25:07;32.70;;;21.17;;
21297;SDS011;10808;48.010;11.326;2023-03-01T06:27:34;30.20;;;20.73;;
21297;SDS011;10808;48.010;11.326;2023-03-01T06:30:01;30.23;;;21.33;;
21297;SDS011;10808;48.010;11.326;2023-03-01T06:32:27;31.48;;;21.08;;
21297;SDS011;10808;48.010;11.326;2023-03-01T06:34:53;34.20;;;20.88;;
21297;SDS011;10808;48.010;11.326;2023-03-01T06:37:19;31.80;;;21.45;;
21297;SDS011;10808;48.010;11.326;2023-03-01T06:39:45;29.27;;;20.83;;
21297;SDS011;10808;48.010;11.326;2023-03-01T06:42:12;31.27;;;20.88;;
21297;SDS011;10808;48.010;11.326;2023-03-01T06:44:38;33.53;;;21.50;;
21297;SDS011;10808;48.010;11.326;2023-03-01T06:47:04;32.25;;;21.17;;
21297;SDS011;10808;48.010;11.326;2023-03-01T06:49:30;31.33;;;21.65;;
21297;SDS011;10808;48.010;11.326;2023-03-01T06:51:56;31.77;;;22.33;;
21297;SDS011;10808;48.010;11.326;2023-03-01T06:54:22;33.47;;;21.50;;
21297;SDS011;10808;48.010;11.326;2023-03-01T06:56:49;33.67;;;21.20;;
21297;SDS011;10808;48.010;11.326;2023-03-01T06:59:16;32.97;;;21.77;;
21297;SDS011;10808;48.010;11.326;2023-03-01T07:01:42;35.38;;;22.35;;
21297;SDS011;10808;48.010;11.326;2023-03-01T07:04:10;36.90;;;22.50;;
21297;SDS011;10808;48.010;11.326;2023-03-01T07:06:37;36.05;;;22.02;;
21297;SDS011;10808;48.010;11.326;2023-03-01T07:09:03;33.90;;;21.90;;
21297;SDS011;10808;48.010;11.326;2023-03-01T07:11:29;30.55;;;20.83;;
21297;SDS011;10808;48.010;11.326;2023-03-01T07:13:55;33.27;;;22.40;;
21297;SDS011;10808;48.010;11.326;2023-03-01T07:16:22;33.90;;;21.52;;
21297;SDS011;10808;48.010;11.326;2023-03-01T07:18:48;32.80;;;22.05;;
21297;SDS011;10808;48.010;11.326;2023-03-01T07:21:14;36.38;;;22.90;;
21297;SDS011;10808;48.010;11.326;2023-03-01T07:23:41;34.50;;;22.70;;
21297;SDS011;10808;48.010;11.326;2023-03-01T07:26:08;36.47;;;22.45;;
21297;SDS011;10808;48.010;11.326;2023-03-01T07:28:34;36.33;;;22.87;;
21297;SDS011;10808;48.010;11.326;2023-03-01T07:31:03;35.88;;;23.17;;
21297;SDS011;10808;48.010;11.326;2023-03-01T07:33:30;39.28;;;23.38;;
21297;SDS011;10808;48.010;11.326;2023-03-01T07:35:57;34.78;;;22.88;;
21297;SDS011;10808;48.010;11.326;2023-03-01T07:38:27;34.13;;;22.30;;
21297;SDS011;10808;48.010;11.326;2023-03-01T07:40:57;34.40;;;21.97;;
21297;SDS011;10808;48.010;11.326;2023-03-01T07:43:24;33.42;;;22.40;;
21297;SDS011;10808;48.010;11.326;2023-03-01T07:45:50;38.00;;;23.37;;
21297;SDS011;10808;48.010;11.326;2023-03-01T07:48:17;35.65;;;22.40;;
21297;SDS011;10808;48.010;11.326;2023-03-01T07:50:43;38.93;;;24.23;;
21297;SDS011;10808;48.010;11.326;2023-03-01T07:53:09;34.38;;;23.27;;
21297;SDS011;10808;48.010;11.326;2023-03-01T07:55:36;37.65;;;23.48;;
21297;SDS011;10808;48.010;11.326;2023-03-01T07:58:02;34.47;;;22.70;;
21297;SDS011;10808;48.010;11.326;2023-03-01T08:00:28;36.67;;;23.67;;
21297;SDS011;10808;48.010;11.326;2023-03-01T08:02:58;36.30;;;24.15;;
21297;SDS011;10808;48.010;11.326;2023-03-01T08:05:26;35.20;;;23.38;;
21297;SDS011;10808;48.010;11.326;2023-03-01T08:07:52;34.60;;;22.75;;
21297;SDS011;10808;48.010;11.326;2023-03-01T08:10:19;36.88;;;23.67;;
21297;SDS011;10808;48.010;11.326;2023-03-01T08:12:45;38.45;;;24.02;;
21297;SDS011;10808;48.010;11.326;2023-03-01T08:15:11;37.42;;;23.60;;
21297;SDS011;10808;48.010;11.326;2023-03-01T08:17:37;37.47;;;23.92;;
21297;SDS011;10808;48.010;11.326;2023-03-01T08:20:04;37.70;;;23.25;;
21297;SDS011;10808;48.010;11.326;2023-03-01T08:22:32;34.90;;;22.87;;
21297;SDS011;10808;48.010;11.326;2023-03-01T08:24:58;35.30;;;23.23;;
21297;SDS011;10808;48.010;11.326;2023-03-01T08:27:24;35.15;;;23.48;;
21297;SDS011;10808;48.010;11.326;2023-03-01T08:29:50;37.28;;;24.10;;
21297;SDS011;10808;48.010;11.326;2023-03-01T08:32:16;37.90;;;24.13;;
21297;SDS011;10808;48.010;11.326;2023-03-01T08:34:42;33.95;;;22.48;;
21297;SDS011;10808;48.010;11.326;2023-03-01T08:37:12;34.92;;;23.02;;
21297;SDS011;10808;48.010;11.326;2023-03-01T08:39:38;37.28;;;23.45;;
21297;SDS011;10808;48.010;11.326;2023-03-01T08:42:04;36.22;;;23.52;;
21297;SDS011;10808;48.010;11.326;2023-03-01T08:44:30;38.88;;;23.13;;
21297;SDS011;10808;48.010;11.326;2023-03-01T08:46:56;38.38;;;23.83;;
21297;SDS011;10808;48.010;11.326;2023-03-01T08:49:23;35.60;;;23.63;;
21297;SDS011;10808;48.010;11.326;2023-03-01T08:51:49;35.63;;;22.80;;
21297;SDS011;10808;48.010;11.326;2023-03-01T08:54:15;36.03;;;23.23;;
21297;SDS011;10808;48.010;11.326;2023-03-01T08:56:43;35.22;;;23.20;;
21297;SDS011;10808;48.010;11.326;2023-03-01T08:59:10;35.60;;;23.10;;
21297;SDS011;10808;48.010;11.326;2023-03-01T09:01:37;34.67;;;23.05;;
21297;SDS011;10808;48.010;11.326;2023-03-01T09:04:03;34.08;;;22.90;;
21297;SDS011;10808;48.010;11.326;2023-03-01T09:06:30;34.42;;;22.25;;
21297;SDS011;10808;48.010;11.326;2023-03-01T09:08:58;32.40;;;22.77;;
21297;SDS011;10808;48.010;11.326;2023-03-01T09:11:24;35.17;;;23.07;;
21297;SDS011;10808;48.010;11.326;2023-03-01T09:13:50;33.97;;;22.95;;
21297;SDS011;10808;48.010;11.326;2023-03-01T09:16:17;34.85;;;22.75;;
21297;SDS011;10808;48.010;11.326;2023-03-01T09:18:44;35.70;;;22.63;;
21297;SDS011;10808;48.010;11.326;2023-03-01T09:21:15;36.57;;;22.90;;
21297;SDS011;10808;48.010;11.326;2023-03-01T09:23:43;36.58;;;23.30;;
21297;SDS011;10808;48.010;11.326;2023-03-01T09:26:11;37.28;;;24.20;;
21297;SDS011;10808;48.010;11.326;2023-03-01T09:28:39;36.85;;;22.92;;
21297;SDS011;10808;48.010;11.326;2023-03-01T09:31:10;35.63;;;23.52;;
21297;SDS011;10808;48.010;11.326;2023-03-01T09:33:38;34.95;;;23.67;;
21297;SDS011;10808;48.010;11.326;2023-03-01T09:36:07;33.50;;;22.13;;
21297;SDS011;10808;48.010;11.326;2023-03-01T09:38:43;35.38;;;21.23;;
21297;SDS011;10808;48.010;11.326;2023-03-01T09:41:11;29.77;;;19.63;;
21297;SDS011;10808;48.010;11.326;2023-03-01T09:44:08;30.70;;;20.65;;
21297;SDS011;10808;48.010;11.326;2023-03-01T09:46:44;29.40;;;19.90;;
21297;SDS011;10808;48.010;11.326;2023-03-01T09:49:15;26.37;;;18.43;;
21297;SDS011;10808;48.010;11.326;2023-03-01T09:51:47;29.05;;;19.67;;
21297;SDS011;10808;48.010;11.326;2023-03-01T09:54:24;26.33;;;18.17;;
21297;SDS011;10808;48.010;11.326;2023-03-01T09:56:57;33.88;;;21.02;;
21297;SDS011;10808;48.010;11.326;2023-03-01T10:02:42;40.40;;;26.00;;
21297;SDS011;10808;48.010;11.326;2023-03-01T10:07:54;33.30;;;21.35;;
21297;SDS011;10808;48.010;11.326;2023-03-01T10:10:43;37.22;;;26.13;;
21297;SDS011;10808;48.010;11.326;2023-03-01T10:13:22;33.35;;;21.58;;
21297;SDS011;10808;48.010;11.326;2023-03-01T10:15:50;35.50;;;24.67;;
21297;SDS011;10808;48.010;11.326;2023-03-01T10:18:26;31.73;;;21.65;;
21297;SDS011;10808;48.010;11.326;2023-03-01T10:23:41;34.65;;;22.65;;
21297;SDS011;10808;48.010;11.326;2023-03-01T10:26:14;36.63;;;24.08;;
21297;SDS011;10808;48.010;11.326;2023-03-01T10:29:04;36.20;;;23.25;;
21297;SDS011;10808;48.010;11.326;2023-03-01T10:34:11;35.38;;;23.80;;
21297;SDS011;10808;48.010;11.326;2023-03-01T10:36:49;36.38;;;23.42;;
21297;SDS011;10808;48.010;11.326;2023-03-01T10:39:18;35.63;;;23.25;;
21297;SDS011;10808;48.010;11.326;2023-03-01T10:41:52;33.20;;;22.43;;
21297;SDS011;10808;48.010;11.326;2023-03-01T10:44:43;38.05;;;23.55;;
21297;SDS011;10808;48.010;11.326;2023-03-01T10:52:31;35.63;;;22.87;;
21297;SDS011;10808;48.010;11.326;2023-03-01T10:57:39;37.95;;;23.75;;
21297;SDS011;10808;48.010;11.326;2023-03-01T11:02:47;39.72;;;23.95;;
21297;SDS011;10808;48.010;11.326;2023-03-01T11:05:24;36.47;;;24.00;;
21297;SDS011;10808;48.010;11.326;2023-03-01T11:07:52;36.30;;;23.60;;
21297;SDS011;10808;48.010;11.326;2023-03-01T11:10:20;36.40;;;23.98;;
21297;SDS011;10808;48.010;11.326;2023-03-01T11:12:48;36.22;;;23.55;;
21297;SDS011;10808;48.010;11.326;2023-03-01T11:15:23;37.15;;;24.52;;
21297;SDS011;10808;48.010;11.326;2023-03-01T11:17:51;37.70;;;24.52;;
21297;SDS011;10808;48.010;11.326;2023-03-01T11:20:27;35.30;;;24.73;;
21297;SDS011;10808;48.010;11.326;2023-03-01T11:22:59;39.30;;;25.15;;
21297;SDS011;10808;48.010;11.326;2023-03-01T11:25:38;51.72;;;33.63;;
21297;SDS011;10808;48.010;11.326;2023-03-01T11:28:12;36.45;;;23.40;;
21297;SDS011;10808;48.010;11.326;2023-03-01T11:33:18;34.17;;;22.35;;
21297;SDS011;10808;48.010;11.326;2023-03-01T11:38:53;34.45;;;22.92;;
21297;SDS011;10808;48.010;11.326;2023-03-01T11:41:21;33.95;;;22.88;;
21297;SDS011;10808;48.010;11.326;2023-03-01T11:44:14;30.52;;;20.65;;
21297;SDS011;10808;48.010;11.326;2023-03-01T11:46:56;30.55;;;21.17;;
21297;SDS011;10808;48.010;11.326;2023-03-01T11:49:40;28.83;;;19.87;;
21297;SDS011;10808;48.010;11.326;2023-03-01T12:04:00;30.17;;;20.13;;
21297;SDS011;10808;48.010;11.326;2023-03-01T12:09:22;31.63;;;21.13;;
21297;SDS011;10808;48.010;11.326;2023-03-01T12:20:02;31.20;;;20.73;;
21297;SDS011;10808;48.010;11.326;2023-03-01T12:29:07;30.58;;;20.35;;
21297;SDS011;10808;48.010;11.326;2023-03-01T12:31:57;33.55;;;20.92;;
21297;SDS011;10808;48.010;11.326;2023-03-01T12:34:42;31.60;;;21.07;;
21297;SDS011;10808;48.010;11.326;2023-03-01T12:37:36;31.50;;;20.90;;
21297;SDS011;10808;48.010;11.326;2023-03-01T12:40:23;30.63;;;20.92;;
21297;SDS011;10808;48.010;11.326;2023-03-01T12:51:18;30.13;;;20.23;;
21297;SDS011;10808;48.010;11.326;2023-03-01T12:53:49;31.60;;;20.57;;
21297;SDS011;10808;48.010;11.326;2023-03-01T12:58:54;31.17;;;20.48;;
21297;SDS011;10808;48.010;11.326;2023-03-01T13:07:11;32.47;;;20.90;;
21297;SDS011;10808;48.010;11.326;2023-03-01T13:10:26;29.75;;;20.42;;
21297;SDS011;10808;48.010;11.326;2023-03-01T13:13:12;29.55;;;20.35;;
21297;SDS011;10808;48.010;11.326;2023-03-01T13:15:48;28.73;;;19.77;;
21297;SDS011;10808;48.010;11.326;2023-03-01T13:20:49;30.00;;;19.92;;
21297;SDS011;10808;48.010;11.326;2023-03-01T13:30:57;29.67;;;20.23;;
21297;SDS011;10808;48.010;11.326;2023-03-01T13:35:56;28.42;;;19.67;;
21297;SDS011;10808;48.010;11.326;2023-03-01T13:41:12;25.67;;;18.95;;
21297;SDS011;10808;48.010;11.326;2023-03-01T13:43:44;27.80;;;19.65;;
21297;SDS011;10808;48.010;11.326;2023-03-01T13:46:16;30.90;;;20.20;;
21297;SDS011;10808;48.010;11.326;2023-03-01T13:48:49;30.75;;;19.73;;
21297;SDS011;10808;48.010;11.326;2023-03-01T13:51:20;30.45;;;19.58;;
21297;SDS011;10808;48.010;11.326;2023-03-01T13:53:52;27.90;;;19.80;;
21297;SDS011;10808;48.010;11.326;2023-03-01T13:56:24;30.45;;;20.40;;
21297;SDS011;10808;48.010;11.326;2023-03-01T13:59:01;29.53;;;20.63;;
21297;SDS011;10808;48.010;11.326;2023-03-01T14:01:31;29.55;;;20.02;;
21297;SDS011;10808;48.010;11.326;2023-03-01T14:03:59;29.50;;;20.75;;
21297;SDS011;10808;48.010;11.326;2023-03-01T14:06:27;29.52;;;20.17;;
21297;SDS011;10808;48.010;11.326;2023-03-01T14:20:39;27.40;;;20.42;;
21297;SDS011;10808;48.010;11.326;2023-03-01T14:23:14;27.13;;;20.15;;
21297;SDS011;10808;48.010;11.326;2023-03-01T14:25:51;27.48;;;20.45;;
21297;SDS011;10808;48.010;11.326;2023-03-01T14:28:29;30.63;;;20.77;;
21297;SDS011;10808;48.010;11.326;2023-03-01T14:30:59;26.77;;;20.25;;
21297;SDS011;10808;48.010;11.326;2023-03-01T14:38:43;27.73;;;19.67;;
21297;SDS011;10808;48.010;11.326;2023-03-01T14:43:57;27.55;;;20.10;;
21297;SDS011;10808;48.010;11.326;2023-03-01T14:49:04;26.83;;;20.27;;
21297;SDS011;10808;48.010;11.326;2023-03-01T14:51:42;29.50;;;20.52;;
21297;SDS011;10808;48.010;11.326;2023-03-01T14:54:20;27.45;;;20.13;;
21297;SDS011;10808;48.010;11.326;2023-03-01T14:56:47;28.25;;;20.50;;
21297;SDS011;10808;48.010;11.326;2023-03-01T14:59:13;25.67;;;20.15;;
21297;SDS011;10808;48.010;11.326;2023-03-01T15:01:40;25.97;;;20.17;;
21297;SDS011;10808;48.010;11.326;2023-03-01T15:04:08;26.67;;;20.03;;
21297;SDS011;10808;48.010;11.326;2023-03-01T15:06:38;29.40;;;21.48;;
21297;SDS011;10808;48.010;11.326;2023-03-01T15:09:05;27.48;;;21.05;;
21297;SDS011;10808;48.010;11.326;2023-03-01T15:11:33;28.53;;;21.67;;
21297;SDS011;10808;48.010;11.326;2023-03-01T15:14:03;26.80;;;20.33;;
21297;SDS011;10808;48.010;11.326;2023-03-01T15:17:04;28.58;;;21.60;;
21297;SDS011;10808;48.010;11.326;2023-03-01T15:19:30;28.42;;;21.38;;
21297;SDS011;10808;48.010;11.326;2023-03-01T15:21:57;27.67;;;21.05;;
21297;SDS011;10808;48.010;11.326;2023-03-01T15:24:24;28.83;;;21.33;;
21297;SDS011;10808;48.010;11.326;2023-03-01T15:26:56;30.98;;;20.60;;
21297;SDS011;10808;48.010;11.326;2023-03-01T15:29:28;28.75;;;21.48;;
21297;SDS011;10808;48.010;11.326;2023-03-01T15:32:05;29.58;;;21.77;;
21297;SDS011;10808;48.010;11.326;2023-03-01T15:34:48;31.25;;;21.63;;
21297;SDS011;10808;48.010;11.326;2023-03-01T15:40:18;30.65;;;21.33;;
21297;SDS011;10808;48.010;11.326;2023-03-01T15:42:44;31.08;;;22.08;;
21297;SDS011;10808;48.010;11.326;2023-03-01T15:47:41;33.55;;;22.95;;
21297;SDS011;10808;48.010;11.326;2023-03-01T15:52:58;33.57;;;23.23;;
21297;SDS011;10808;48.010;11.326;2023-03-01T15:55:28;32.57;;;22.00;;
21297;SDS011;10808;48.010;11.326;2023-03-01T15:58:05;31.85;;;22.45;;
21297;SDS011;10808;48.010;11.326;2023-03-01T16:00:37;33.03;;;23.25;;
21297;SDS011;10808;48.010;11.326;2023-03-01T16:03:05;34.92;;;22.73;;
21297;SDS011;10808;48.010;11.326;2023-03-01T16:05:34;32.97;;;22.77;;
21297;SDS011;10808;48.010;11.326;2023-03-01T16:08:01;32.72;;;22.80;;
21297;SDS011;10808;48.010;11.326;2023-03-01T16:10:28;33.25;;;23.17;;
21297;SDS011;10808;48.010;11.326;2023-03-01T16:12:57;34.30;;;23.25;;
21297;SDS011;10808;48.010;11.326;2023-03-01T16:15:24;30.92;;;22.27;;
21297;SDS011;10808;48.010;11.326;2023-03-01T16:17:52;35.38;;;22.98;;
21297;SDS011;10808;48.010;11.326;2023-03-01T16:20:19;33.08;;;23.25;;
21297;SDS011;10808;48.010;11.326;2023-03-01T16:22:51;34.20;;;22.42;;
21297;SDS011;10808;48.010;11.326;2023-03-01T16:25:19;33.97;;;23.15;;
21297;SDS011;10808;48.010;11.326;2023-03-01T16:27:49;33.33;;;22.40;;
21297;SDS011;10808;48.010;11.326;2023-03-01T16:30:17;34.65;;;22.88;;
21297;SDS011;10808;48.010;11.326;2023-03-01T16:32:45;36.78;;;23.80;;
21297;SDS011;10808;48.010;11.326;2023-03-01T16:35:13;36.80;;;23.88;;
21297;SDS011;10808;48.010;11.326;2023-03-01T16:37:50;40.80;;;24.27;;